sensor_id;sensor_type;location;lat;lon;timestamp;pressure;altitude;pressure_sealevel;temperature
84287;BMP280;74445;55.252;61.092;2024-01-25T00:01:05;139810.28;;;-21.98
84287;BMP280;74445;55.252;61.092;2024-01-25T00:03:32;139828.16;;;-21.90
84287;BMP280;74445;55.252;61.092;2024-01-25T00:05:59;139843.59;;;-21.84
84287;BMP280;74445;55.252;61.092;2024-01-25T00:08:26;139857.88;;;-21.78
84287;BMP280;74445;55.252;61.092;2024-01-25T00:10:52;139875.75;;;-21.71
84287;BMP280;74445;55.252;61.092;2024-01-25T00:13:18;139881.66;;;-21.68
84287;BMP280;74445;55.252;61.092;2024-01-25T00:15:45;139886.44;;;-21.66
84287;BMP280;74445;55.252;61.092;2024-01-25T00:18:11;139888.81;;;-21.65
84287;BMP280;74445;55.252;61.092;2024-01-25T00:20:39;139891.19;;;-21.64
84287;BMP280;74445;55.252;61.092;2024-01-25T00:23:06;139892.34;;;-21.64
84287;BMP280;74445;55.252;61.092;2024-01-25T00:25:33;139900.69;;;-21.60
84287;BMP280;74445;55.252;61.092;2024-01-25T00:27:59;139910.19;;;-21.56
84287;BMP280;74445;55.252;61.092;2024-01-25T00:30:25;139917.31;;;-21.53
84287;BMP280;74445;55.252;61.092;2024-01-25T00:32:52;139931.59;;;-21.47
84287;BMP280;74445;55.252;61.092;2024-01-25T00:35:19;139943.50;;;-21.42
84287;BMP280;74445;55.252;61.092;2024-01-25T00:37:47;139957.78;;;-21.36
84287;BMP280;74445;55.252;61.092;2024-01-25T00:40:14;139963.69;;;-21.34
84287;BMP280;74445;55.252;61.092;2024-01-25T00:42:42;139968.47;;;-21.32
84287;BMP280;74445;55.252;61.092;2024-01-25T00:45:10;139975.59;;;-21.29
84287;BMP280;74445;55.252;61.092;2024-01-25T00:47:37;139982.75;;;-21.26
84287;BMP280;74445;55.252;61.092;2024-01-25T00:50:04;139979.19;;;-21.27
84287;BMP280;74445;55.252;61.092;2024-01-25T00:52:31;139976.81;;;-21.28
84287;BMP280;74445;55.252;61.092;2024-01-25T00:55:00;139973.22;;;-21.30
84287;BMP280;74445;55.252;61.092;2024-01-25T00:57:27;139966.09;;;-21.33
84287;BMP280;74445;55.252;61.092;2024-01-25T00:59:54;139963.69;;;-21.34
84287;BMP280;74445;55.252;61.092;2024-01-25T01:02:22;139957.78;;;-21.36
84287;BMP280;74445;55.252;61.092;2024-01-25T01:04:49;139955.41;;;-21.37
84287;BMP280;74445;55.252;61.092;2024-01-25T01:09:51;139945.88;;;-21.41
84287;BMP280;74445;55.252;61.092;2024-01-25T01:12:19;139944.66;;;-21.42
84287;BMP280;74445;55.252;61.092;2024-01-25T01:14:46;139939.91;;;-21.44
84287;BMP280;74445;55.252;61.092;2024-01-25T01:17:12;139942.28;;;-21.43
84287;BMP280;74445;55.252;61.092;2024-01-25T01:19:39;139948.25;;;-21.40
84287;BMP280;74445;55.252;61.092;2024-01-25T01:22:05;139960.16;;;-21.35
84287;BMP280;74445;55.252;61.092;2024-01-25T01:24:32;139966.09;;;-21.33
84287;BMP280;74445;55.252;61.092;2024-01-25T01:26:58;139979.19;;;-21.27
84287;BMP280;74445;55.252;61.092;2024-01-25T01:29:27;139991.09;;;-21.22
84287;BMP280;74445;55.252;61.092;2024-01-25T01:31:53;140001.78;;;-21.18
84287;BMP280;74445;55.252;61.092;2024-01-25T01:34:20;140014.91;;;-21.12
84287;BMP280;74445;55.252;61.092;2024-01-25T01:36:46;140031.56;;;-21.05
84287;BMP280;74445;55.252;61.092;2024-01-25T01:39:13;140044.66;;;-21.00
84287;BMP280;74445;55.252;61.092;2024-01-25T01:41:39;140063.69;;;-20.92
84287;BMP280;74445;55.252;61.092;2024-01-25T01:44:06;140076.81;;;-20.86
84287;BMP280;74445;55.252;61.092;2024-01-25T01:46:34;140095.81;;;-20.78
84287;BMP280;74445;55.252;61.092;2024-01-25T01:49:03;140112.50;;;-20.71
84287;BMP280;74445;55.252;61.092;2024-01-25T01:51:30;140123.19;;;-20.67
84287;BMP280;74445;55.252;61.092;2024-01-25T01:53:57;140141.06;;;-20.60
84287;BMP280;74445;55.252;61.092;2024-01-25T01:56:24;140152.97;;;-20.55
84287;BMP280;74445;55.252;61.092;2024-01-25T01:58:53;140164.91;;;-20.50
84287;BMP280;74445;55.252;61.092;2024-01-25T02:01:21;140176.81;;;-20.45
84287;BMP280;74445;55.252;61.092;2024-01-25T02:03:48;140191.06;;;-20.39
84287;BMP280;74445;55.252;61.092;2024-01-25T02:06:15;140205.34;;;-20.33
84287;BMP280;74445;55.252;61.092;2024-01-25T02:08:41;140218.47;;;-20.27
84287;BMP280;74445;55.252;61.092;2024-01-25T02:11:10;140231.56;;;-20.22
84287;BMP280;74445;55.252;61.092;2024-01-25T02:13:37;140244.69;;;-20.16
84287;BMP280;74445;55.252;61.092;2024-01-25T02:16:04;140262.53;;;-20.09
84287;BMP280;74445;55.252;61.092;2024-01-25T02:18:52;140270.91;;;-20.05
84287;BMP280;74445;55.252;61.092;2024-01-25T02:21:23;140284.00;;;-20.00
84287;BMP280;74445;55.252;61.092;2024-01-25T02:23:51;140295.88;;;-19.95
84287;BMP280;74445;55.252;61.092;2024-01-25T02:26:18;140307.78;;;-19.90
84287;BMP280;74445;55.252;61.092;2024-01-25T02:28:44;140316.16;;;-19.86
84287;BMP280;74445;55.252;61.092;2024-01-25T02:31:10;140324.47;;;-19.83
84287;BMP280;74445;55.252;61.092;2024-01-25T02:33:37;140335.22;;;-19.78
84287;BMP280;74445;55.252;61.092;2024-01-25T02:36:03;140350.69;;;-19.72
84287;BMP280;74445;55.252;61.092;2024-01-25T02:38:29;140354.28;;;-19.70
84287;BMP280;74445;55.252;61.092;2024-01-25T02:40:57;140360.22;;;-19.68
84287;BMP280;74445;55.252;61.092;2024-01-25T02:43:24;140370.97;;;-19.63
84287;BMP280;74445;55.252;61.092;2024-01-25T02:45:50;140374.53;;;-19.62
84287;BMP280;74445;55.252;61.092;2024-01-25T02:48:17;140382.91;;;-19.58
84287;BMP280;74445;55.252;61.092;2024-01-25T02:50:43;140393.63;;;-19.54
84287;BMP280;74445;55.252;61.092;2024-01-25T02:53:10;140404.38;;;-19.49
84287;BMP280;74445;55.252;61.092;2024-01-25T02:55:36;140411.53;;;-19.47
84287;BMP280;74445;55.252;61.092;2024-01-25T02:58:04;140427.00;;;-19.40
84287;BMP280;74445;55.252;61.092;2024-01-25T03:00:30;140436.53;;;-19.36
84287;BMP280;74445;55.252;61.092;2024-01-25T03:02:57;140444.91;;;-19.33
84287;BMP280;74445;55.252;61.092;2024-01-25T03:05:23;140454.44;;;-19.29
84287;BMP280;74445;55.252;61.092;2024-01-25T03:07:50;140465.16;;;-19.24
84287;BMP280;74445;55.252;61.092;2024-01-25T03:10:16;140484.25;;;-19.16
84287;BMP280;74445;55.252;61.092;2024-01-25T03:12:44;140486.63;;;-19.15
84287;BMP280;74445;55.252;61.092;2024-01-25T03:15:12;140500.91;;;-19.09
84287;BMP280;74445;55.252;61.092;2024-01-25T03:17:39;140506.84;;;-19.07
84287;BMP280;74445;55.252;61.092;2024-01-25T03:20:06;140517.59;;;-19.02
84287;BMP280;74445;55.252;61.092;2024-01-25T03:22:33;140524.75;;;-18.99
84287;BMP280;74445;55.252;61.092;2024-01-25T03:24:59;140533.09;;;-18.96
84287;BMP280;74445;55.252;61.092;2024-01-25T03:27:26;140539.06;;;-18.93
84287;BMP280;74445;55.252;61.092;2024-01-25T03:29:52;140543.84;;;-18.91
84287;BMP280;74445;55.252;61.092;2024-01-25T03:32:20;140551.00;;;-18.88
84287;BMP280;74445;55.252;61.092;2024-01-25T03:34:46;140554.56;;;-18.87
84287;BMP280;74445;55.252;61.092;2024-01-25T03:37:13;140561.72;;;-18.84
84287;BMP280;74445;55.252;61.092;2024-01-25T03:39:39;140568.88;;;-18.81
84287;BMP280;74445;55.252;61.092;2024-01-25T03:42:06;140572.47;;;-18.79
84287;BMP280;74445;55.252;61.092;2024-01-25T03:44:32;140577.25;;;-18.77
84287;BMP280;74445;55.252;61.092;2024-01-25T03:46:59;140580.81;;;-18.76
84287;BMP280;74445;55.252;61.092;2024-01-25T03:49:27;140583.19;;;-18.75
84287;BMP280;74445;55.252;61.092;2024-01-25T03:51:53;140585.59;;;-18.74
84287;BMP280;74445;55.252;61.092;2024-01-25T03:54:19;140579.63;;;-18.76
84287;BMP280;74445;55.252;61.092;2024-01-25T03:56:46;140578.41;;;-18.77
84287;BMP280;74445;55.252;61.092;2024-01-25T03:59:12;140576.03;;;-18.78
84287;BMP280;74445;55.252;61.092;2024-01-25T04:01:44;140582.03;;;-18.75
84287;BMP280;74445;55.252;61.092;2024-01-25T04:04:11;140585.59;;;-18.74
84287;BMP280;74445;55.252;61.092;2024-01-25T04:06:41;140589.19;;;-18.72
84287;BMP280;74445;55.252;61.092;2024-01-25T04:09:08;140596.34;;;-18.69
84287;BMP280;74445;55.252;61.092;2024-01-25T04:11:36;140603.50;;;-18.66
84287;BMP280;74445;55.252;61.092;2024-01-25T04:14:02;140614.22;;;-18.62
84287;BMP280;74445;55.252;61.092;2024-01-25T04:16:29;140622.59;;;-18.58
84287;BMP280;74445;55.252;61.092;2024-01-25T04:18:55;140632.16;;;-18.54
84287;BMP280;74445;55.252;61.092;2024-01-25T04:21:21;140646.47;;;-18.48
84287;BMP280;74445;55.252;61.092;2024-01-25T04:23:49;140669.13;;;-18.39
84287;BMP280;74445;55.252;61.092;2024-01-25T04:26:16;140699.00;;;-18.27
84287;BMP280;74445;55.252;61.092;2024-01-25T04:28:43;140731.16;;;-18.13
84287;BMP280;74445;55.252;61.092;2024-01-25T04:31:09;140768.19;;;-17.98
84287;BMP280;74445;55.252;61.092;2024-01-25T04:33:37;140811.16;;;-17.80
84287;BMP280;74445;55.252;61.092;2024-01-25T04:36:04;140863.69;;;-17.58
84287;BMP280;74445;55.252;61.092;2024-01-25T04:38:31;140913.88;;;-17.37
84287;BMP280;74445;55.252;61.092;2024-01-25T04:40:59;140966.41;;;-17.15
84287;BMP280;74445;55.252;61.092;2024-01-25T04:48:45;141143.38;;;-16.41
84287;BMP280;74445;55.252;61.092;2024-01-25T04:51:15;141186.38;;;-16.23
84287;BMP280;74445;55.252;61.092;2024-01-25T04:53:42;141236.63;;;-16.02
84287;BMP280;74445;55.252;61.092;2024-01-25T04:56:09;141308.44;;;-15.73
84287;BMP280;74445;55.252;61.092;2024-01-25T04:58:35;141383.81;;;-15.41
84287;BMP280;74445;55.252;61.092;2024-01-25T05:01:02;141463.97;;;-15.08
84287;BMP280;74445;55.252;61.092;2024-01-25T05:03:29;141545.41;;;-14.74
84287;BMP280;74445;55.252;61.092;2024-01-25T05:05:57;141634.09;;;-14.37
84287;BMP280;74445;55.252;61.092;2024-01-25T05:08:23;141719.13;;;-14.02
84287;BMP280;74445;55.252;61.092;2024-01-25T05:10:50;141795.84;;;-13.70
84287;BMP280;74445;55.252;61.092;2024-01-25T05:13:16;141864.22;;;-13.42
84287;BMP280;74445;55.252;61.092;2024-01-25T05:15:43;141900.22;;;-13.27
84287;BMP280;74445;55.252;61.092;2024-01-25T05:18:09;141899.00;;;-13.27
84287;BMP280;74445;55.252;61.092;2024-01-25T05:20:35;141894.19;;;-13.29
84287;BMP280;74445;55.252;61.092;2024-01-25T05:23:05;141890.63;;;-13.31
84287;BMP280;74445;55.252;61.092;2024-01-25T05:25:32;141894.19;;;-13.29
84287;BMP280;74445;55.252;61.092;2024-01-25T05:27:59;141911.00;;;-13.22
84287;BMP280;74445;55.252;61.092;2024-01-25T05:30:25;141926.63;;;-13.16
84287;BMP280;74445;55.252;61.092;2024-01-25T05:32:52;141935.00;;;-13.12
84287;BMP280;74445;55.252;61.092;2024-01-25T05:35:20;141939.78;;;-13.10
84287;BMP280;74445;55.252;61.092;2024-01-25T05:37:47;141962.63;;;-13.01
84287;BMP280;74445;55.252;61.092;2024-01-25T05:40:15;141993.78;;;-12.88
84287;BMP280;74445;55.252;61.092;2024-01-25T05:42:41;142027.31;;;-12.74
84287;BMP280;74445;55.252;61.092;2024-01-25T05:45:08;142056.13;;;-12.62
84287;BMP280;74445;55.252;61.092;2024-01-25T05:47:35;142080.16;;;-12.52
84287;BMP280;74445;55.252;61.092;2024-01-25T05:50:01;142102.97;;;-12.42
84287;BMP280;74445;55.252;61.092;2024-01-25T05:52:30;142119.78;;;-12.35
84287;BMP280;74445;55.252;61.092;2024-01-25T05:54:57;142148.59;;;-12.24
84287;BMP280;74445;55.252;61.092;2024-01-25T05:57:25;142172.63;;;-12.14
84287;BMP280;74445;55.252;61.092;2024-01-25T05:59:52;142196.66;;;-12.04
84287;BMP280;74445;55.252;61.092;2024-01-25T06:02:18;142225.47;;;-11.92
84287;BMP280;74445;55.252;61.092;2024-01-25T06:04:45;142256.72;;;-11.79
84287;BMP280;74445;55.252;61.092;2024-01-25T06:07:11;142293.94;;;-11.63
84287;BMP280;74445;55.252;61.092;2024-01-25T06:09:38;142340.72;;;-11.44
84287;BMP280;74445;55.252;61.092;2024-01-25T06:12:05;142403.22;;;-11.18
84287;BMP280;74445;55.252;61.092;2024-01-25T06:14:33;142475.34;;;-10.88
84287;BMP280;74445;55.252;61.092;2024-01-25T06:16:59;142547.50;;;-10.58
84287;BMP280;74445;55.252;61.092;2024-01-25T06:19:26;142608.88;;;-10.33
84287;BMP280;74445;55.252;61.092;2024-01-25T06:21:52;142663.00;;;-10.10
84287;BMP280;74445;55.252;61.092;2024-01-25T06:24:19;142694.22;;;-9.97
84287;BMP280;74445;55.252;61.092;2024-01-25T06:26:45;142712.25;;;-9.90
84287;BMP280;74445;55.252;61.092;2024-01-25T06:29:12;142719.47;;;-9.87
84287;BMP280;74445;55.252;61.092;2024-01-25T06:31:42;142731.50;;;-9.82
84287;BMP280;74445;55.252;61.092;2024-01-25T06:34:12;142730.34;;;-9.83
84287;BMP280;74445;55.252;61.092;2024-01-25T06:36:39;142738.75;;;-9.79
84287;BMP280;74445;55.252;61.092;2024-01-25T06:39:05;142741.16;;;-9.78
84287;BMP280;74445;55.252;61.092;2024-01-25T06:41:32;142725.53;;;-9.85
84287;BMP280;74445;55.252;61.092;2024-01-25T06:43:59;142695.41;;;-9.97
84287;BMP280;74445;55.252;61.092;2024-01-25T06:46:26;142646.16;;;-10.17
84287;BMP280;74445;55.252;61.092;2024-01-25T06:48:54;142595.63;;;-10.38
84287;BMP280;74445;55.252;61.092;2024-01-25T06:51:20;142554.72;;;-10.55
84287;BMP280;74445;55.252;61.092;2024-01-25T06:53:47;142548.72;;;-10.58
84287;BMP280;74445;55.252;61.092;2024-01-25T06:56:13;142567.97;;;-10.50
84287;BMP280;74445;55.252;61.092;2024-01-25T06:58:40;142604.06;;;-10.35
84287;BMP280;74445;55.252;61.092;2024-01-25T07:01:06;142630.53;;;-10.24
84287;BMP280;74445;55.252;61.092;2024-01-25T07:03:32;142693.00;;;-9.98
84287;BMP280;74445;55.252;61.092;2024-01-25T07:06:01;142736.34;;;-9.80
84287;BMP280;74445;55.252;61.092;2024-01-25T07:08:28;142782.06;;;-9.61
84287;BMP280;74445;55.252;61.092;2024-01-25T07:10:54;142837.44;;;-9.38
84287;BMP280;74445;55.252;61.092;2024-01-25T07:13:22;142885.63;;;-9.18
84287;BMP280;74445;55.252;61.092;2024-01-25T07:15:48;142919.34;;;-9.04
84287;BMP280;74445;55.252;61.092;2024-01-25T07:18:15;142975.94;;;-8.81
84287;BMP280;74445;55.252;61.092;2024-01-25T07:20:42;143033.75;;;-8.57
84287;BMP280;74445;55.252;61.092;2024-01-25T07:23:09;143085.59;;;-8.36
84287;BMP280;74445;55.252;61.092;2024-01-25T07:25:36;143120.53;;;-8.21
84287;BMP280;74445;55.252;61.092;2024-01-25T07:28:03;143150.66;;;-8.09
84287;BMP280;74445;55.252;61.092;2024-01-25T07:30:30;143183.16;;;-7.95
84287;BMP280;74445;55.252;61.092;2024-01-25T07:32:56;143219.34;;;-7.80
84287;BMP280;74445;55.252;61.092;2024-01-25T07:35:23;143256.75;;;-7.65
84287;BMP280;74445;55.252;61.092;2024-01-25T07:37:50;143300.13;;;-7.47
84287;BMP280;74445;55.252;61.092;2024-01-25T07:40:20;143358.03;;;-7.23
84287;BMP280;74445;55.252;61.092;2024-01-25T07:42:47;143413.53;;;-7.00
84287;BMP280;74445;55.252;61.092;2024-01-25T07:45:13;143472.69;;;-6.76
84287;BMP280;74445;55.252;61.092;2024-01-25T07:47:41;143533.03;;;-6.51
84287;BMP280;74445;55.252;61.092;2024-01-25T07:50:08;143584.94;;;-6.29
84287;BMP280;74445;55.252;61.092;2024-01-25T07:52:35;143630.81;;;-6.11
84287;BMP280;74445;55.252;61.092;2024-01-25T07:55:06;143691.19;;;-5.86
84287;BMP280;74445;55.252;61.092;2024-01-25T07:57:34;143749.13;;;-5.62
84287;BMP280;74445;55.252;61.092;2024-01-25T08:00:01;143797.47;;;-5.42
84287;BMP280;74445;55.252;61.092;2024-01-25T08:02:29;143857.91;;;-5.17
84287;BMP280;74445;55.252;61.092;2024-01-25T08:04:55;143925.53;;;-4.89
84287;BMP280;74445;55.252;61.092;2024-01-25T08:07:23;144012.59;;;-4.53
84287;BMP280;74445;55.252;61.092;2024-01-25T08:09:50;144117.84;;;-4.10
84287;BMP280;74445;55.252;61.092;2024-01-25T08:12:18;144240.03;;;-3.60
84287;BMP280;74445;55.252;61.092;2024-01-25T08:14:46;144378.06;;;-3.03
84287;BMP280;74445;55.252;61.092;2024-01-25T08:17:13;144482.22;;;-2.60
84287;BMP280;74445;55.252;61.092;2024-01-25T08:19:39;144594.88;;;-2.14
84287;BMP280;74445;55.252;61.092;2024-01-25T08:22:06;144662.75;;;-1.86
84287;BMP280;74445;55.252;61.092;2024-01-25T08:24:33;144683.31;;;-1.77
84287;BMP280;74445;55.252;61.092;2024-01-25T08:26:59;144656.66;;;-1.88
84287;BMP280;74445;55.252;61.092;2024-01-25T08:29:26;144608.16;;;-2.08
84287;BMP280;74445;55.252;61.092;2024-01-25T08:31:54;144553.66;;;-2.31
84287;BMP280;74445;55.252;61.092;2024-01-25T08:34:20;144472.53;;;-2.64
84287;BMP280;74445;55.252;61.092;2024-01-25T08:36:50;144418.00;;;-2.86
84287;BMP280;74445;55.252;61.092;2024-01-25T08:39:16;144369.56;;;-3.06
84287;BMP280;74445;55.252;61.092;2024-01-25T08:41:43;144329.63;;;-3.23
84287;BMP280;74445;55.252;61.092;2024-01-25T08:44:11;144290.88;;;-3.39
84287;BMP280;74445;55.252;61.092;2024-01-25T08:46:38;144254.56;;;-3.54
84287;BMP280;74445;55.252;61.092;2024-01-25T08:49:06;144189.22;;;-3.80
84287;BMP280;74445;55.252;61.092;2024-01-25T08:51:35;144092.44;;;-4.20
84287;BMP280;74445;55.252;61.092;2024-01-25T08:54:01;143978.75;;;-4.67
84287;BMP280;74445;55.252;61.092;2024-01-25T08:56:30;143859.06;;;-5.16
84287;BMP280;74445;55.252;61.092;2024-01-25T08:58:56;143737.06;;;-5.67
84287;BMP280;74445;55.252;61.092;2024-01-25T09:01:23;143640.47;;;-6.07
84287;BMP280;74445;55.252;61.092;2024-01-25T09:03:50;143555.94;;;-6.41
84287;BMP280;74445;55.252;61.092;2024-01-25T09:06:18;143501.66;;;-6.64
84287;BMP280;74445;55.252;61.092;2024-01-25T09:08:45;143455.78;;;-6.83
84287;BMP280;74445;55.252;61.092;2024-01-25T09:11:11;143437.66;;;-6.90
84287;BMP280;74445;55.252;61.092;2024-01-25T09:13:38;143435.25;;;-6.91
84287;BMP280;74445;55.252;61.092;2024-01-25T09:16:10;143432.84;;;-6.92
84287;BMP280;74445;55.252;61.092;2024-01-25T09:18:37;143415.94;;;-6.99
84287;BMP280;74445;55.252;61.092;2024-01-25T09:21:04;143401.47;;;-7.05
84287;BMP280;74445;55.252;61.092;2024-01-25T09:23:32;143402.69;;;-7.05
84287;BMP280;74445;55.252;61.092;2024-01-25T09:25:58;143383.38;;;-7.13
84287;BMP280;74445;55.252;61.092;2024-01-25T09:28:25;143379.75;;;-7.14
84287;BMP280;74445;55.252;61.092;2024-01-25T09:30:52;143378.56;;;-7.15
84287;BMP280;74445;55.252;61.092;2024-01-25T09:33:18;143377.31;;;-7.15
84287;BMP280;74445;55.252;61.092;2024-01-25T09:35:45;143359.25;;;-7.23
84287;BMP280;74445;55.252;61.092;2024-01-25T09:38:14;143338.72;;;-7.31
84287;BMP280;74445;55.252;61.092;2024-01-25T09:40:42;143314.59;;;-7.41
84287;BMP280;74445;55.252;61.092;2024-01-25T09:43:08;143278.41;;;-7.56
84287;BMP280;74445;55.252;61.092;2024-01-25T09:45:35;143230.22;;;-7.76
84287;BMP280;74445;55.252;61.092;2024-01-25T09:48:04;143150.66;;;-8.09
84287;BMP280;74445;55.252;61.092;2024-01-25T09:50:31;143062.69;;;-8.45
84287;BMP280;74445;55.252;61.092;2024-01-25T09:53:00;142980.75;;;-8.79
84287;BMP280;74445;55.252;61.092;2024-01-25T09:55:27;142903.72;;;-9.11
84287;BMP280;74445;55.252;61.092;2024-01-25T09:57:55;142857.94;;;-9.30
84287;BMP280;74445;55.252;61.092;2024-01-25T10:00:25;142813.38;;;-9.48
84287;BMP280;74445;55.252;61.092;2024-01-25T10:02:52;142773.66;;;-9.65
84287;BMP280;74445;55.252;61.092;2024-01-25T10:05:19;142744.78;;;-9.77
84287;BMP280;74445;55.252;61.092;2024-01-25T10:07:46;142712.25;;;-9.90
84287;BMP280;74445;55.252;61.092;2024-01-25T10:10:13;142683.44;;;-10.02
84287;BMP280;74445;55.252;61.092;2024-01-25T10:12:41;142629.31;;;-10.24
84287;BMP280;74445;55.252;61.092;2024-01-25T10:15:13;142586.00;;;-10.42
84287;BMP280;74445;55.252;61.092;2024-01-25T10:17:40;142552.31;;;-10.56
84287;BMP280;74445;55.252;61.092;2024-01-25T10:20:08;142530.66;;;-10.65
84287;BMP280;74445;55.252;61.092;2024-01-25T10:22:38;142510.25;;;-10.74
84287;BMP280;74445;55.252;61.092;2024-01-25T10:25:12;142493.41;;;-10.81
84287;BMP280;74445;55.252;61.092;2024-01-25T10:27:39;142456.13;;;-10.96
84287;BMP280;74445;55.252;61.092;2024-01-25T10:30:07;142432.06;;;-11.06
84287;BMP280;74445;55.252;61.092;2024-01-25T10:32:38;142411.66;;;-11.14
84287;BMP280;74445;55.252;61.092;2024-01-25T10:35:05;142397.22;;;-11.20
84287;BMP280;74445;55.252;61.092;2024-01-25T10:37:33;142380.41;;;-11.27
84287;BMP280;74445;55.252;61.092;2024-01-25T10:40:00;142370.78;;;-11.31
84287;BMP280;74445;55.252;61.092;2024-01-25T10:42:28;142361.19;;;-11.35
84287;BMP280;74445;55.252;61.092;2024-01-25T10:44:55;142351.56;;;-11.39
84287;BMP280;74445;55.252;61.092;2024-01-25T10:47:22;142344.34;;;-11.42
84287;BMP280;74445;55.252;61.092;2024-01-25T10:49:52;142327.53;;;-11.49
84287;BMP280;74445;55.252;61.092;2024-01-25T10:52:19;142309.56;;;-11.57
84287;BMP280;74445;55.252;61.092;2024-01-25T10:54:46;142287.94;;;-11.66
84287;BMP280;74445;55.252;61.092;2024-01-25T10:57:13;142265.09;;;-11.75
84287;BMP280;74445;55.252;61.092;2024-01-25T10:59:40;142237.47;;;-11.87
84287;BMP280;74445;55.252;61.092;2024-01-25T11:02:07;142201.44;;;-12.02
84287;BMP280;74445;55.252;61.092;2024-01-25T11:04:35;142160.63;;;-12.19
84287;BMP280;74445;55.252;61.092;2024-01-25T11:07:08;142124.59;;;-12.33
84287;BMP280;74445;55.252;61.092;2024-01-25T11:09:36;142083.78;;;-12.50
84287;BMP280;74445;55.252;61.092;2024-01-25T11:12:11;142048.94;;;-12.65
84287;BMP280;74445;55.252;61.092;2024-01-25T11:14:39;142003.38;;;-12.84
84287;BMP280;74445;55.252;61.092;2024-01-25T11:17:15;141961.38;;;-13.01
84287;BMP280;74445;55.252;61.092;2024-01-25T11:19:44;141907.41;;;-13.24
84287;BMP280;74445;55.252;61.092;2024-01-25T11:22:12;141861.84;;;-13.43
84287;BMP280;74445;55.252;61.092;2024-01-25T11:24:38;141811.47;;;-13.63
84287;BMP280;74445;55.252;61.092;2024-01-25T11:27:05;141767.06;;;-13.82
84287;BMP280;74445;55.252;61.092;2024-01-25T11:29:32;141721.50;;;-14.01
84287;BMP280;74445;55.252;61.092;2024-01-25T11:31:59;141674.84;;;-14.20
84287;BMP280;74445;55.252;61.092;2024-01-25T11:34:25;141634.09;;;-14.37
84287;BMP280;74445;55.252;61.092;2024-01-25T11:36:52;141598.13;;;-14.52
84287;BMP280;74445;55.252;61.092;2024-01-25T11:39:20;141568.19;;;-14.65
84287;BMP280;74445;55.252;61.092;2024-01-25T11:41:47;141529.88;;;-14.80
84287;BMP280;74445;55.252;61.092;2024-01-25T11:44:15;141497.50;;;-14.94
84287;BMP280;74445;55.252;61.092;2024-01-25T11:46:42;141465.19;;;-15.07
84287;BMP280;74445;55.252;61.092;2024-01-25T11:49:08;141431.66;;;-15.21
84287;BMP280;74445;55.252;61.092;2024-01-25T11:51:35;141395.78;;;-15.36
84287;BMP280;74445;55.252;61.092;2024-01-25T11:54:01;141368.28;;;-15.48
84287;BMP280;74445;55.252;61.092;2024-01-25T11:56:35;141332.38;;;-15.63
84287;BMP280;74445;55.252;61.092;2024-01-25T11:59:02;141295.25;;;-15.78
84287;BMP280;74445;55.252;61.092;2024-01-25T12:01:29;141258.16;;;-15.93
84287;BMP280;74445;55.252;61.092;2024-01-25T12:03:56;141215.09;;;-16.11
84287;BMP280;74445;55.252;61.092;2024-01-25T12:06:23;141176.81;;;-16.27
84287;BMP280;74445;55.252;61.092;2024-01-25T12:08:50;141142.16;;;-16.42
84287;BMP280;74445;55.252;61.092;2024-01-25T12:11:18;141100.31;;;-16.59
84287;BMP280;74445;55.252;61.092;2024-01-25T12:13:46;141056.09;;;-16.78
84287;BMP280;74445;55.252;61.092;2024-01-25T12:16:13;141010.66;;;-16.97
84287;BMP280;74445;55.252;61.092;2024-01-25T12:18:42;140961.63;;;-17.17
84287;BMP280;74445;55.252;61.092;2024-01-25T12:21:09;140919.88;;;-17.34
84287;BMP280;74445;55.252;61.092;2024-01-25T12:23:36;140879.25;;;-17.51
84287;BMP280;74445;55.252;61.092;2024-01-25T12:26:04;140841.03;;;-17.67
84287;BMP280;74445;55.252;61.092;2024-01-25T12:28:31;140808.75;;;-17.81
84287;BMP280;74445;55.252;61.092;2024-01-25T12:31:04;140771.75;;;-17.96
84287;BMP280;74445;55.252;61.092;2024-01-25T12:33:31;140746.69;;;-18.07
84287;BMP280;74445;55.252;61.092;2024-01-25T12:35:59;140722.81;;;-18.17
84287;BMP280;74445;55.252;61.092;2024-01-25T12:38:26;140707.28;;;-18.23
84287;BMP280;74445;55.252;61.092;2024-01-25T12:40:53;140691.84;;;-18.29
84287;BMP280;74445;55.252;61.092;2024-01-25T12:43:20;140687.06;;;-18.31
84287;BMP280;74445;55.252;61.092;2024-01-25T12:45:50;140688.22;;;-18.31
84287;BMP280;74445;55.252;61.092;2024-01-25T12:48:18;140694.22;;;-18.28
84287;BMP280;74445;55.252;61.092;2024-01-25T12:50:44;140694.22;;;-18.28
84287;BMP280;74445;55.252;61.092;2024-01-25T12:53:11;140709.66;;;-18.22
84287;BMP280;74445;55.252;61.092;2024-01-25T12:55:38;140720.44;;;-18.18
84287;BMP280;74445;55.252;61.092;2024-01-25T12:58:05;140734.75;;;-18.12
84287;BMP280;74445;55.252;61.092;2024-01-25T13:00:31;140751.47;;;-18.05
84287;BMP280;74445;55.252;61.092;2024-01-25T13:02:59;140769.38;;;-17.97
84287;BMP280;74445;55.252;61.092;2024-01-25T13:05:29;140784.91;;;-17.91
84287;BMP280;74445;55.252;61.092;2024-01-25T13:08:00;140799.25;;;-17.85
84287;BMP280;74445;55.252;61.092;2024-01-25T13:10:27;140813.53;;;-17.79
84287;BMP280;74445;55.252;61.092;2024-01-25T13:12:53;140827.88;;;-17.73
84287;BMP280;74445;55.252;61.092;2024-01-25T13:15:20;140845.81;;;-17.65
84287;BMP280;74445;55.252;61.092;2024-01-25T13:17:46;140869.69;;;-17.55
84287;BMP280;74445;55.252;61.092;2024-01-25T13:20:13;140890.00;;;-17.47
84287;BMP280;74445;55.252;61.092;2024-01-25T13:22:41;140907.94;;;-17.39
84287;BMP280;74445;55.252;61.092;2024-01-25T13:25:08;140922.28;;;-17.33
84287;BMP280;74445;55.252;61.092;2024-01-25T13:27:36;140934.19;;;-17.28
84287;BMP280;74445;55.252;61.092;2024-01-25T13:30:03;140944.91;;;-17.24
84287;BMP280;74445;55.252;61.092;2024-01-25T13:32:31;140950.91;;;-17.21
84287;BMP280;74445;55.252;61.092;2024-01-25T13:34:58;140953.28;;;-17.20
84287;BMP280;74445;55.252;61.092;2024-01-25T13:37:24;140948.50;;;-17.22
84287;BMP280;74445;55.252;61.092;2024-01-25T13:39:52;140950.91;;;-17.21
84287;BMP280;74445;55.252;61.092;2024-01-25T13:42:19;140946.13;;;-17.23
84287;BMP280;74445;55.252;61.092;2024-01-25T13:44:45;140947.28;;;-17.23